Time;durP1;ratioP1;P1;durP2;ratioP2;P2;SDS_P1;SDS_P2;PMS_P1;PMS_P2;Temp;Humidity;BMP_temperature;BMP_pressure;BME280_temperature;BME280_humidity;BME280_pressure;Samples;Min_cycle;Max_cycle;Signal;HPM_P1;HPM_P2
2021/07/23 00:02:08;;;;;;;14.90;9.05;;;;;;;;;;6278521;22;20173;-88
2021/07/23 00:05:15;;;;;;;15.10;8.43;;;;;;;;;;6272036;22;20189;-88
2021/07/23 00:08:20;;;;;;;15.38;8.80;;;;;;;;;;6274276;22;20161;-87
2021/07/23 00:11:25;;;;;;;16.52;8.57;;;;;;;;;;6271899;22;20165;-88
2021/07/23 00:14:31;;;;;;;14.23;9.10;;;;;;;;;;6272341;22;20162;-89
2021/07/23 00:17:36;;;;;;;17.95;9.27;;;;;;;;;;6270003;22;20193;-86
2021/07/23 00:20:43;;;;;;;18.05;9.75;;;;;;;;;;6273288;22;20162;-88
2021/07/23 00:23:48;;;;;;;16.10;9.13;;;;;;;;;;6273288;22;20181;-88
2021/07/23 00:26:58;;;;;;;13.98;9.10;;;;;;;;;;6271077;22;20161;-86
2021/07/23 00:30:03;;;;;;;15.48;9.35;;;;;;;;;;6271423;22;20609;-89
2021/07/23 00:33:08;;;;;;;16.33;8.88;;;;;;;;;;6271549;22;20189;-88
2021/07/23 00:36:14;;;;;;;16.23;9.32;;;;;;;;;;6271795;22;20149;-87
2021/07/23 00:39:19;;;;;;;16.92;8.75;;;;;;;;;;6269503;22;20264;-86
2021/07/23 00:42:35;;;;;;;15.45;9.13;;;;;;;;;;6269918;22;20249;-87
2021/07/23 00:45:40;;;;;;;16.55;8.65;;;;;;;;;;6271232;22;20197;-88
2021/07/23 00:48:46;;;;;;;19.13;9.30;;;;;;;;;;6268359;22;20716;-88
2021/07/23 00:51:54;;;;;;;17.92;9.05;;;;;;;;;;6271847;22;20217;-87
2021/07/23 00:55:00;;;;;;;17.52;9.10;;;;;;;;;;6270856;22;20189;-86
2021/07/23 00:58:07;;;;;;;13.63;9.00;;;;;;;;;;6270089;22;20213;-87
2021/07/23 01:01:13;;;;;;;17.98;9.50;;;;;;;;;;6270621;22;20165;-87
2021/07/23 01:04:20;;;;;;;17.10;9.80;;;;;;;;;;6270852;22;20174;-87
2021/07/23 01:07:26;;;;;;;20.05;10.45;;;;;;;;;;6269722;22;20222;-87
2021/07/23 01:10:32;;;;;;;19.83;9.80;;;;;;;;;;6269387;22;20218;-86
2021/07/23 01:13:52;;;;;;;21.45;9.85;;;;;;;;;;6271371;22;20170;-88
2021/07/23 01:16:57;;;;;;;18.73;9.90;;;;;;;;;;6269349;22;20513;-88
2021/07/23 01:20:05;;;;;;;20.80;10.45;;;;;;;;;;6271290;22;20261;-87
2021/07/23 01:23:12;;;;;;;15.13;9.35;;;;;;;;;;6269651;22;20166;-86
2021/07/23 01:26:21;;;;;;;18.17;9.15;;;;;;;;;;6271291;22;20157;-86
2021/07/23 01:29:27;;;;;;;16.48;9.07;;;;;;;;;;6270803;22;20169;-89
2021/07/23 01:32:31;;;;;;;17.92;9.48;;;;;;;;;;6269937;22;20240;-88
2021/07/23 01:35:37;;;;;;;17.30;8.73;;;;;;;;;;6270035;22;20174;-88
2021/07/23 01:38:46;;;;;;;15.95;9.02;;;;;;;;;;6268915;22;20182;-86
2021/07/23 01:41:53;;;;;;;16.02;9.73;;;;;;;;;;6270180;22;20169;-86
2021/07/23 01:44:59;;;;;;;18.85;9.63;;;;;;;;;;6269795;22;20189;-88
2021/07/23 01:48:04;;;;;;;15.65;8.88;;;;;;;;;;6268766;22;20162;-88
2021/07/23 01:51:09;;;;;;;19.85;9.02;;;;;;;;;;6269019;22;20169;-89
2021/07/23 01:54:15;;;;;;;15.23;9.07;;;;;;;;;;6269029;22;20150;-88
2021/07/23 01:57:23;;;;;;;15.07;8.75;;;;;;;;;;6268846;22;20162;-89
2021/07/23 02:00:34;;;;;;;16.55;8.88;;;;;;;;;;6268741;22;20671;-88
2021/07/23 02:03:41;;;;;;;16.52;9.02;;;;;;;;;;6270997;22;20158;-89
2021/07/23 02:06:47;;;;;;;18.33;9.48;;;;;;;;;;6270088;22;20165;-88
2021/07/23 02:09:52;;;;;;;14.73;8.77;;;;;;;;;;6269531;22;20170;-87
2021/07/23 02:13:04;;;;;;;15.55;9.13;;;;;;;;;;6269485;22;20182;-87
2021/07/23 02:16:15;;;;;;;16.70;9.80;;;;;;;;;;6270335;22;20170;-87
2021/07/23 02:19:20;;;;;;;17.20;9.48;;;;;;;;;;6269096;22;20197;-87
2021/07/23 02:22:29;;;;;;;15.10;8.70;;;;;;;;;;6268485;22;20166;-87
2021/07/23 02:25:35;;;;;;;15.43;8.73;;;;;;;;;;6270099;22;20625;-89
2021/07/23 02:28:41;;;;;;;15.35;9.13;;;;;;;;;;6268991;22;20197;-89
2021/07/23 02:31:47;;;;;;;17.25;10.20;;;;;;;;;;6268580;22;20422;-89
2021/07/23 02:34:59;;;;;;;16.83;9.35;;;;;;;;;;6269067;22;20181;-88
2021/07/23 02:38:12;;;;;;;15.35;9.32;;;;;;;;;;6268220;22;20258;-88
2021/07/23 02:41:19;;;;;;;20.10;9.55;;;;;;;;;;6266153;22;20170;-88
2021/07/23 02:44:27;;;;;;;18.83;8.63;;;;;;;;;;6266709;22;20189;-89
2021/07/23 02:47:32;;;;;;;20.85;9.32;;;;;;;;;;6267692;22;20166;-89
2021/07/23 02:50:38;;;;;;;16.77;9.55;;;;;;;;;;6269350;22;20189;-88
2021/07/23 02:53:44;;;;;;;18.30;9.68;;;;;;;;;;6268831;22;20177;-88
2021/07/23 02:56:49;;;;;;;22.17;10.65;;;;;;;;;;6269295;22;20169;-86
2021/07/23 02:59:56;;;;;;;22.55;11.43;;;;;;;;;;6269118;22;20189;-86
2021/07/23 03:03:04;;;;;;;24.38;12.07;;;;;;;;;;6267810;22;20174;-87
2021/07/23 03:06:10;;;;;;;17.02;9.70;;;;;;;;;;6267531;22;20165;-86
2021/07/23 03:09:17;;;;;;;21.73;10.90;;;;;;;;;;6269015;22;20498;-90
2021/07/23 03:12:22;;;;;;;21.83;10.05;;;;;;;;;;6269354;22;20244;-88
2021/07/23 03:15:33;;;;;;;20.73;11.23;;;;;;;;;;6268735;22;20297;-87
2021/07/23 03:18:38;;;;;;;19.92;10.60;;;;;;;;;;6287284;22;20220;-88
2021/07/23 03:21:44;;;;;;;17.38;9.65;;;;;;;;;;6269095;22;20158;-87
2021/07/23 03:24:52;;;;;;;20.60;10.45;;;;;;;;;;6268708;22;20166;-87
2021/07/23 03:28:16;;;;;;;19.92;10.73;;;;;;;;;;6287739;22;20233;-88
2021/07/23 03:31:34;;;;;;;16.52;10.20;;;;;;;;;;6270551;22;20173;-87
2021/07/23 03:34:48;;;;;;;20.45;10.25;;;;;;;;;;6272956;22;20600;-86
2021/07/23 03:38:02;;;;;;;17.55;9.23;;;;;;;;;;6270686;22;20250;-85
2021/07/23 03:41:09;;;;;;;18.42;10.55;;;;;;;;;;6272529;22;20170;-86
2021/07/23 03:44:16;;;;;;;19.77;9.40;;;;;;;;;;6271601;22;20293;-87
2021/07/23 03:47:25;;;;;;;14.57;8.93;;;;;;;;;;6270358;22;20222;-86
2021/07/23 03:50:34;;;;;;;15.68;9.02;;;;;;;;;;6272494;22;20233;-87
2021/07/23 03:53:41;;;;;;;14.60;8.63;;;;;;;;;;6270231;22;20204;-88
2021/07/23 03:57:04;;;;;;;15.38;9.40;;;;;;;;;;6271176;22;20242;-86
2021/07/23 04:00:10;;;;;;;13.90;8.82;;;;;;;;;;6270921;22;20201;-88
2021/07/23 04:03:25;;;;;;;13.38;8.23;;;;;;;;;;6289500;22;20166;-86
2021/07/23 04:06:34;;;;;;;15.73;9.35;;;;;;;;;;6269853;22;20520;-87
2021/07/23 04:09:44;;;;;;;15.48;9.15;;;;;;;;;;6270044;22;20165;-87
2021/07/23 04:12:52;;;;;;;20.17;9.13;;;;;;;;;;6271782;22;20241;-87
2021/07/23 04:15:57;;;;;;;16.67;9.38;;;;;;;;;;6271822;22;20166;-85
2021/07/23 04:19:11;;;;;;;14.75;8.45;;;;;;;;;;6268576;22;20201;-86
2021/07/23 04:22:25;;;;;;;16.13;8.52;;;;;;;;;;6269485;22;20244;-85
2021/07/23 04:25:38;;;;;;;16.25;9.13;;;;;;;;;;6271079;22;20186;-87
2021/07/23 04:28:44;;;;;;;16.65;8.82;;;;;;;;;;6271106;22;20172;-89
2021/07/23 04:31:50;;;;;;;17.42;9.05;;;;;;;;;;6270417;22;20173;-88
2021/07/23 04:34:58;;;;;;;15.95;9.27;;;;;;;;;;6271129;22;20169;-88
2021/07/23 04:38:05;;;;;;;14.70;8.63;;;;;;;;;;6268981;22;20304;-89
2021/07/23 04:41:21;;;;;;;15.07;8.75;;;;;;;;;;6270354;22;20170;-89
2021/07/23 04:44:31;;;;;;;14.18;8.63;;;;;;;;;;6271318;22;20214;-88
2021/07/23 04:47:37;;;;;;;34.70;9.52;;;;;;;;;;6269833;22;20284;-89
2021/07/23 04:50:45;;;;;;;18.63;9.65;;;;;;;;;;6270537;22;20220;-89
2021/07/23 04:54:15;;;;;;;22.30;9.02;;;;;;;;;;6287726;22;20162;-86
2021/07/23 04:57:44;;;;;;;15.90;8.73;;;;;;;;;;6289106;22;20160;-88
2021/07/23 05:00:53;;;;;;;13.40;7.95;;;;;;;;;;6270648;22;20173;-89
2021/07/23 05:04:00;;;;;;;17.92;8.68;;;;;;;;;;6289385;22;20284;-88
2021/07/23 05:07:07;;;;;;;23.33;10.40;;;;;;;;;;6272708;22;20176;-88
2021/07/23 05:10:14;;;;;;;15.05;8.32;;;;;;;;;;6269272;22;20166;-86
2021/07/23 05:13:19;;;;;;;17.05;8.85;;;;;;;;;;6270971;22;20153;-86
2021/07/23 05:16:25;;;;;;;12.90;8.40;;;;;;;;;;6271728;22;20162;-88
2021/07/23 05:19:30;;;;;;;15.00;8.23;;;;;;;;;;6270220;22;20197;-87
2021/07/23 05:22:38;;;;;;;11.60;7.53;;;;;;;;;;6270375;22;20174;-87
2021/07/23 05:25:43;;;;;;;11.55;7.50;;;;;;;;;;6271248;22;20162;-88
2021/07/23 05:28:49;;;;;;;13.52;7.60;;;;;;;;;;6273692;22;20222;-87
2021/07/23 05:31:54;;;;;;;12.95;7.47;;;;;;;;;;6268706;22;20228;-86
2021/07/23 05:35:02;;;;;;;14.18;7.88;;;;;;;;;;6268588;22;20170;-88
2021/07/23 05:38:15;;;;;;;15.85;8.02;;;;;;;;;;6271898;22;20178;-85
2021/07/23 05:41:25;;;;;;;18.27;7.65;;;;;;;;;;6272275;22;20269;-87
2021/07/23 05:44:31;;;;;;;14.00;7.97;;;;;;;;;;6269325;22;20252;-85
2021/07/23 05:47:37;;;;;;;19.55;8.75;;;;;;;;;;6286988;22;20166;-86
2021/07/23 05:50:42;;;;;;;17.13;7.68;;;;;;;;;;6269985;22;20174;-88
2021/07/23 05:53:48;;;;;;;15.52;7.70;;;;;;;;;;6269395;22;20173;-87
2021/07/23 05:56:53;;;;;;;15.23;7.70;;;;;;;;;;6268760;22;20178;-89
2021/07/23 05:59:58;;;;;;;13.50;7.72;;;;;;;;;;6269252;22;20240;-87
2021/07/23 06:03:04;;;;;;;14.27;7.65;;;;;;;;;;6271665;22;20238;-86
2021/07/23 06:06:09;;;;;;;14.30;7.40;;;;;;;;;;6268846;22;20170;-87
2021/07/23 06:09:16;;;;;;;14.00;8.35;;;;;;;;;;6269052;22;20165;-87
2021/07/23 06:12:21;;;;;;;10.25;7.10;;;;;;;;;;6271070;22;20166;-87
2021/07/23 06:15:26;;;;;;;13.98;7.00;;;;;;;;;;6269723;22;20295;-88
2021/07/23 06:18:32;;;;;;;14.52;7.03;;;;;;;;;;6269511;22;20223;-90
2021/07/23 06:21:37;;;;;;;14.60;7.03;;;;;;;;;;6273555;22;20166;-87
2021/07/23 06:24:44;;;;;;;13.65;7.03;;;;;;;;;;6275643;22;20185;-88
2021/07/23 06:27:49;;;;;;;11.82;7.38;;;;;;;;;;6270329;22;20218;-88
2021/07/23 06:30:59;;;;;;;12.43;6.75;;;;;;;;;;6269747;22;20166;-88
2021/07/23 06:34:04;;;;;;;12.85;7.30;;;;;;;;;;6271732;22;20207;-88
2021/07/23 06:37:12;;;;;;;12.77;7.55;;;;;;;;;;6270099;22;20367;-89
2021/07/23 06:40:18;;;;;;;11.75;7.00;;;;;;;;;;6271263;22;20194;-88
2021/07/23 06:43:23;;;;;;;13.65;6.45;;;;;;;;;;6276397;22;20197;-88
2021/07/23 06:46:29;;;;;;;14.85;6.57;;;;;;;;;;6273565;22;20189;-90
2021/07/23 06:49:35;;;;;;;14.80;7.45;;;;;;;;;;6269745;22;20196;-89
2021/07/23 06:52:40;;;;;;;12.18;7.07;;;;;;;;;;6289526;22;20184;-86
2021/07/23 06:55:47;;;;;;;13.63;7.15;;;;;;;;;;6269842;22;20165;-87
2021/07/23 06:58:52;;;;;;;14.82;6.68;;;;;;;;;;6267648;22;20166;-90
2021/07/23 07:02:00;;;;;;;13.25;7.05;;;;;;;;;;6271115;22;20218;-88
2021/07/23 07:05:05;;;;;;;11.98;6.78;;;;;;;;;;6271123;22;20217;-89
2021/07/23 07:08:10;;;;;;;11.10;6.50;;;;;;;;;;6272332;22;20170;-88
2021/07/23 07:11:16;;;;;;;10.32;6.80;;;;;;;;;;6272748;22;20236;-88
2021/07/23 07:14:28;;;;;;;9.75;6.68;;;;;;;;;;6275881;22;20165;-89
2021/07/23 07:17:33;;;;;;;12.73;6.75;;;;;;;;;;6276172;22;20170;-88
2021/07/23 07:20:38;;;;;;;11.10;6.10;;;;;;;;;;6270152;22;20189;-89
2021/07/23 07:23:43;;;;;;;13.07;6.80;;;;;;;;;;6272409;22;20190;-88
2021/07/23 07:26:52;;;;;;;12.68;5.78;;;;;;;;;;6274271;22;20166;-89
2021/07/23 07:29:57;;;;;;;11.70;5.95;;;;;;;;;;6273509;22;20169;-89
2021/07/23 07:33:02;;;;;;;12.93;6.45;;;;;;;;;;6273669;22;20173;-89
2021/07/23 07:36:11;;;;;;;8.38;5.60;;;;;;;;;;6274425;22;20355;-91
2021/07/23 07:39:19;;;;;;;11.48;6.22;;;;;;;;;;6274132;22;20217;-89
2021/07/23 07:42:25;;;;;;;11.77;5.60;;;;;;;;;;6271378;22;20246;-87
2021/07/23 07:45:31;;;;;;;11.77;4.70;;;;;;;;;;6270635;22;20361;-88
2021/07/23 07:48:36;;;;;;;10.10;5.63;;;;;;;;;;6270384;22;20174;-89
2021/07/23 07:51:41;;;;;;;10.13;4.82;;;;;;;;;;6270158;22;20181;-91
2021/07/23 07:54:46;;;;;;;14.20;5.72;;;;;;;;;;6270139;22;20213;-87
2021/07/23 07:57:53;;;;;;;11.23;5.80;;;;;;;;;;6270364;22;20166;-89
2021/07/23 08:00:58;;;;;;;9.70;4.57;;;;;;;;;;6270388;22;20201;-89
2021/07/23 08:04:03;;;;;;;10.93;4.85;;;;;;;;;;6271482;22;20170;-87
2021/07/23 08:07:10;;;;;;;9.88;5.18;;;;;;;;;;6270563;22;20197;-89
2021/07/23 08:10:19;;;;;;;10.95;5.53;;;;;;;;;;6272875;22;20165;-88
2021/07/23 08:13:27;;;;;;;9.65;5.05;;;;;;;;;;6270180;22;20181;-89
2021/07/23 08:16:32;;;;;;;10.23;5.30;;;;;;;;;;6268485;22;20169;-90
2021/07/23 08:19:38;;;;;;;17.10;8.50;;;;;;;;;;6270639;22;20189;-87
2021/07/23 08:22:43;;;;;;;9.40;5.85;;;;;;;;;;6267997;22;20173;-90
2021/07/23 08:25:48;;;;;;;16.05;6.32;;;;;;;;;;6268334;22;20173;-90
2021/07/23 08:28:55;;;;;;;11.18;5.30;;;;;;;;;;6268291;22;20201;-89
2021/07/23 08:32:06;;;;;;;10.52;5.38;;;;;;;;;;6268709;22;20164;-89
2021/07/23 08:35:11;;;;;;;10.32;6.10;;;;;;;;;;6268444;22;20174;-89
2021/07/23 08:38:16;;;;;;;9.35;5.63;;;;;;;;;;6267475;22;20205;-88
2021/07/23 08:41:22;;;;;;;10.65;5.53;;;;;;;;;;6270383;22;20197;-89
2021/07/23 08:44:28;;;;;;;10.52;6.00;;;;;;;;;;6266632;22;20239;-88
2021/07/23 08:47:35;;;;;;;12.63;5.97;;;;;;;;;;6269831;22;20181;-89
2021/07/23 08:50:40;;;;;;;10.95;5.72;;;;;;;;;;6269816;22;20616;-90
2021/07/23 08:53:45;;;;;;;10.13;5.80;;;;;;;;;;6269145;22;20173;-88
2021/07/23 08:56:50;;;;;;;10.05;6.00;;;;;;;;;;6270028;22;20165;-89
2021/07/23 08:59:57;;;;;;;12.13;6.38;;;;;;;;;;6268438;22;20237;-90
2021/07/23 09:03:04;;;;;;;12.38;6.10;;;;;;;;;;6269036;22;20280;-89
2021/07/23 09:06:16;;;;;;;14.82;6.35;;;;;;;;;;6250988;22;20161;-89
2021/07/23 09:09:21;;;;;;;11.57;5.75;;;;;;;;;;6271405;22;20173;-89
2021/07/23 09:12:26;;;;;;;13.55;5.82;;;;;;;;;;6268120;22;20169;-90
2021/07/23 09:15:33;;;;;;;9.52;6.15;;;;;;;;;;6268377;22;20216;-89
2021/07/23 09:18:41;;;;;;;11.23;5.35;;;;;;;;;;6266947;22;20192;-88
2021/07/23 09:21:47;;;;;;;10.68;5.28;;;;;;;;;;6268606;22;20197;-89
2021/07/23 09:24:52;;;;;;;14.88;5.82;;;;;;;;;;6270010;22;20169;-91
2021/07/23 09:27:58;;;;;;;15.18;6.15;;;;;;;;;;6267090;22;20160;-89
2021/07/23 09:31:05;;;;;;;9.20;5.47;;;;;;;;;;6267191;22;20161;-89
2021/07/23 09:34:10;;;;;;;10.27;5.85;;;;;;;;;;6268400;22;20212;-87
2021/07/23 09:37:15;;;;;;;12.75;5.22;;;;;;;;;;6269159;22;20170;-88
2021/07/23 09:40:21;;;;;;;9.05;5.40;;;;;;;;;;6268577;22;20208;-89
2021/07/23 09:43:30;;;;;;;10.10;5.53;;;;;;;;;;6266863;22;20649;-88
2021/07/23 09:46:36;;;;;;;9.25;4.85;;;;;;;;;;6273242;22;20241;-87
2021/07/23 09:49:46;;;;;;;13.00;5.50;;;;;;;;;;6274466;22;20359;-90
2021/07/23 09:52:52;;;;;;;10.57;4.70;;;;;;;;;;6274811;22;20176;-88
2021/07/23 09:55:58;;;;;;;11.05;5.28;;;;;;;;;;6273015;22;20165;-91
2021/07/23 09:59:04;;;;;;;9.63;4.75;;;;;;;;;;6266697;22;20207;-90
2021/07/23 10:02:14;;;;;;;11.73;5.20;;;;;;;;;;6267796;22;20169;-89
2021/07/23 10:05:22;;;;;;;8.27;5.03;;;;;;;;;;6268607;22;20177;-89
2021/07/23 10:08:31;;;;;;;8.93;5.18;;;;;;;;;;6270759;22;20164;-90
2021/07/23 10:11:37;;;;;;;8.68;4.90;;;;;;;;;;6267956;22;20388;-89
2021/07/23 10:14:44;;;;;;;7.90;5.07;;;;;;;;;;6269347;22;20177;-89
2021/07/23 10:17:51;;;;;;;9.75;5.20;;;;;;;;;;6266594;22;20570;-89
2021/07/23 10:20:57;;;;;;;8.07;4.70;;;;;;;;;;6268213;22;20249;-88
2021/07/23 10:24:02;;;;;;;13.07;5.40;;;;;;;;;;6269199;22;20161;-88
2021/07/23 10:27:07;;;;;;;9.60;5.30;;;;;;;;;;6269721;22;20169;-89
2021/07/23 10:30:27;;;;;;;13.77;5.28;;;;;;;;;;6270137;22;20153;-89
2021/07/23 10:33:47;;;;;;;10.27;4.95;;;;;;;;;;6269611;22;20169;-89
2021/07/23 10:36:54;;;;;;;7.35;4.80;;;;;;;;;;6269249;22;20207;-89
2021/07/23 10:40:13;;;;;;;12.70;5.47;;;;;;;;;;6269654;22;20165;-89
2021/07/23 10:43:35;;;;;;;9.98;5.00;;;;;;;;;;6272886;22;20168;-90
2021/07/23 10:46:59;;;;;;;12.38;5.40;;;;;;;;;;6269280;22;20220;-89
2021/07/23 10:50:04;;;;;;;8.05;4.88;;;;;;;;;;6269279;22;20627;-90
2021/07/23 10:53:40;;;;;;;9.35;5.22;;;;;;;;;;6268994;22;20216;-88
2021/07/23 10:57:06;;;;;;;10.38;5.18;;;;;;;;;;6148144;22;20167;-89
2021/07/23 11:00:13;;;;;;;9.98;5.32;;;;;;;;;;6269366;22;20200;-90
2021/07/23 11:03:37;;;;;;;11.65;5.10;;;;;;;;;;6271753;22;20173;-90
2021/07/23 11:06:42;;;;;;;9.40;5.03;;;;;;;;;;6272607;22;20169;-91
2021/07/23 11:09:47;;;;;;;9.82;5.32;;;;;;;;;;6271389;22;20235;-91
2021/07/23 11:12:54;;;;;;;11.23;5.80;;;;;;;;;;6269043;22;20177;-89
2021/07/23 11:16:13;;;;;;;11.70;5.00;;;;;;;;;;6270587;22;20161;-89
2021/07/23 11:19:22;;;;;;;16.38;5.45;;;;;;;;;;6271152;22;20212;-91
2021/07/23 11:22:29;;;;;;;10.35;6.05;;;;;;;;;;6271239;22;20177;-90
2021/07/23 11:25:34;;;;;;;15.25;5.63;;;;;;;;;;6271206;22;20173;-89
2021/07/23 11:28:47;;;;;;;8.32;5.85;;;;;;;;;;6270064;22;20164;-89
2021/07/23 11:32:04;;;;;;;13.07;5.45;;;;;;;;;;6252361;22;20165;-90
2021/07/23 11:35:10;;;;;;;9.57;4.90;;;;;;;;;;6271268;22;20277;-88
2021/07/23 11:38:17;;;;;;;7.97;5.65;;;;;;;;;;6270458;22;20241;-91
2021/07/23 11:41:22;;;;;;;11.18;6.03;;;;;;;;;;6270880;22;20197;-88
2021/07/23 11:44:27;;;;;;;8.98;5.75;;;;;;;;;;6271248;22;20231;-89
2021/07/23 11:47:38;;;;;;;8.98;5.43;;;;;;;;;;6272019;22;20263;-90
2021/07/23 11:50:51;;;;;;;9.50;5.43;;;;;;;;;;6271992;22;20173;-91
2021/07/23 11:53:56;;;;;;;8.27;5.75;;;;;;;;;;6272661;22;20235;-87
2021/07/23 11:57:02;;;;;;;16.35;5.97;;;;;;;;;;6275359;22;20173;-89
2021/07/23 12:00:09;;;;;;;10.38;5.57;;;;;;;;;;6277119;22;20192;-90
2021/07/23 12:03:20;;;;;;;10.90;6.10;;;;;;;;;;6295035;22;20173;-89
2021/07/23 12:06:27;;;;;;;7.40;5.05;;;;;;;;;;6274644;22;20170;-88
2021/07/23 12:09:32;;;;;;;7.85;5.28;;;;;;;;;;6275480;22;20173;-86
2021/07/23 12:12:39;;;;;;;9.55;5.68;;;;;;;;;;6274863;22;20188;-88
2021/07/23 12:15:47;;;;;;;8.05;5.28;;;;;;;;;;6275676;22;20178;-90
2021/07/23 12:18:57;;;;;;;13.15;6.10;;;;;;;;;;6276812;22;20181;-89
2021/07/23 12:22:10;;;;;;;9.95;5.97;;;;;;;;;;6275939;22;20181;-89
2021/07/23 12:25:16;;;;;;;7.30;5.00;;;;;;;;;;6275818;22;20164;-90
2021/07/23 12:28:22;;;;;;;14.32;6.47;;;;;;;;;;6276247;22;20165;-89
2021/07/23 12:31:27;;;;;;;8.57;5.80;;;;;;;;;;6276860;22;20256;-88
2021/07/23 12:34:34;;;;;;;13.07;5.90;;;;;;;;;;6275539;22;20148;-89
2021/07/23 12:37:40;;;;;;;10.20;5.80;;;;;;;;;;6274917;22;20169;-90
2021/07/23 12:40:49;;;;;;;8.73;5.85;;;;;;;;;;6276339;22;20219;-90
2021/07/23 12:44:04;;;;;;;14.35;6.18;;;;;;;;;;6273742;22;20222;-89
2021/07/23 12:47:17;;;;;;;10.02;5.97;;;;;;;;;;6270911;22;20189;-90
2021/07/23 12:50:24;;;;;;;10.27;5.55;;;;;;;;;;6271525;22;20381;-90
2021/07/23 12:53:30;;;;;;;9.13;5.43;;;;;;;;;;6273805;22;20539;-91
2021/07/23 12:56:37;;;;;;;9.35;5.50;;;;;;;;;;6273761;22;20292;-89
2021/07/23 12:59:42;;;;;;;9.00;5.43;;;;;;;;;;6274607;22;20168;-89
2021/07/23 13:02:47;;;;;;;11.05;5.38;;;;;;;;;;6274423;22;20192;-90
2021/07/23 13:05:54;;;;;;;9.02;5.30;;;;;;;;;;6273159;22;20170;-89
2021/07/23 13:09:00;;;;;;;7.75;5.65;;;;;;;;;;6271584;22;20253;-90
2021/07/23 13:12:06;;;;;;;9.02;5.60;;;;;;;;;;6273728;22;20216;-90
2021/07/23 13:15:11;;;;;;;14.90;6.00;;;;;;;;;;6272846;22;20181;-89
2021/07/23 13:18:17;;;;;;;10.57;6.13;;;;;;;;;;6271092;22;20164;-90
2021/07/23 13:21:24;;;;;;;12.25;5.75;;;;;;;;;;6273891;22;20189;-91
2021/07/23 13:24:30;;;;;;;20.15;6.22;;;;;;;;;;6273737;22;20177;-88
2021/07/23 13:27:35;;;;;;;10.05;5.85;;;;;;;;;;6272272;22;20237;-89
2021/07/23 13:30:40;;;;;;;14.85;6.50;;;;;;;;;;6271425;22;20234;-88
2021/07/23 13:33:47;;;;;;;9.73;6.13;;;;;;;;;;6271034;22;20161;-91
2021/07/23 13:37:00;;;;;;;9.27;5.63;;;;;;;;;;6272531;22;20166;-89
2021/07/23 13:40:10;;;;;;;10.27;6.18;;;;;;;;;;6272726;22;20208;-87
2021/07/23 13:43:15;;;;;;;11.48;5.75;;;;;;;;;;6272928;22;20165;-88
2021/07/23 13:46:20;;;;;;;7.20;5.30;;;;;;;;;;6270559;22;20199;-88
2021/07/23 13:49:25;;;;;;;12.57;6.30;;;;;;;;;;6271125;22;20152;-89
2021/07/23 13:52:32;;;;;;;9.23;6.25;;;;;;;;;;6271759;22;20149;-87
2021/07/23 13:55:37;;;;;;;9.90;6.38;;;;;;;;;;6270118;22;20168;-89
2021/07/23 13:58:42;;;;;;;9.88;5.68;;;;;;;;;;6290202;22;20168;-89
2021/07/23 14:01:48;;;;;;;9.75;5.78;;;;;;;;;;6271537;22;20189;-90
2021/07/23 14:04:53;;;;;;;12.30;5.85;;;;;;;;;;6271902;22;20176;-89
2021/07/23 14:07:59;;;;;;;8.07;5.68;;;;;;;;;;6270547;22;20169;-89
2021/07/23 14:11:04;;;;;;;12.38;6.03;;;;;;;;;;6269562;22;20185;-89
2021/07/23 14:14:09;;;;;;;10.07;6.35;;;;;;;;;;6268854;22;20276;-89
2021/07/23 14:17:14;;;;;;;11.55;6.18;;;;;;;;;;6269464;22;20172;-88
2021/07/23 14:20:19;;;;;;;12.68;6.28;;;;;;;;;;6267060;22;20212;-90
2021/07/23 14:23:26;;;;;;;14.48;6.32;;;;;;;;;;6269282;22;20165;-91
2021/07/23 14:26:32;;;;;;;10.60;6.00;;;;;;;;;;6269118;22;20216;-90
2021/07/23 14:29:38;;;;;;;12.48;6.78;;;;;;;;;;6269547;22;20189;-88
2021/07/23 14:32:43;;;;;;;11.85;6.03;;;;;;;;;;6271619;22;20169;-88
2021/07/23 14:35:47;;;;;;;11.95;5.88;;;;;;;;;;6269621;22;20283;-89
2021/07/23 14:38:55;;;;;;;11.77;6.75;;;;;;;;;;6269492;22;20176;-87
2021/07/23 14:42:01;;;;;;;12.90;6.40;;;;;;;;;;6269207;22;20267;-89
2021/07/23 14:45:07;;;;;;;9.32;6.53;;;;;;;;;;6270629;22;20268;-89
2021/07/23 14:48:12;;;;;;;9.63;6.10;;;;;;;;;;6270007;22;20161;-89
2021/07/23 14:51:18;;;;;;;13.63;6.70;;;;;;;;;;6270231;22;20214;-89
2021/07/23 14:54:24;;;;;;;12.05;6.85;;;;;;;;;;6270334;22;20242;-86
2021/07/23 14:57:29;;;;;;;9.13;6.05;;;;;;;;;;6270265;22;20165;-88
2021/07/23 15:00:34;;;;;;;14.95;6.65;;;;;;;;;;6269082;22;20224;-87
2021/07/23 15:03:39;;;;;;;10.40;6.45;;;;;;;;;;6268586;22;20169;-88
2021/07/23 15:06:45;;;;;;;10.25;6.78;;;;;;;;;;6268771;22;20164;-89
2021/07/23 15:09:56;;;;;;;9.55;6.15;;;;;;;;;;6266438;22;20169;-87
2021/07/23 15:13:01;;;;;;;13.50;6.65;;;;;;;;;;6269411;22;20471;-88
2021/07/23 15:16:07;;;;;;;11.65;6.20;;;;;;;;;;6271399;22;20161;-90
2021/07/23 15:19:20;;;;;;;12.65;6.43;;;;;;;;;;6270933;22;20169;-88
2021/07/23 15:22:26;;;;;;;8.68;6.07;;;;;;;;;;6273162;22;20193;-88
2021/07/23 15:25:33;;;;;;;15.30;7.32;;;;;;;;;;6268823;22;20165;-88
2021/07/23 15:28:38;;;;;;;9.93;6.22;;;;;;;;;;6290916;22;20174;-89
2021/07/23 15:31:43;;;;;;;11.38;6.13;;;;;;;;;;6272524;22;20331;-88
2021/07/23 15:34:48;;;;;;;12.07;6.63;;;;;;;;;;6272225;22;20173;-89
2021/07/23 15:37:53;;;;;;;11.40;6.95;;;;;;;;;;6270873;22;20173;-90
2021/07/23 15:41:00;;;;;;;13.55;6.38;;;;;;;;;;6270858;22;20167;-89
2021/07/23 15:44:06;;;;;;;10.85;6.90;;;;;;;;;;6270295;22;20157;-89
2021/07/23 15:47:11;;;;;;;14.15;7.35;;;;;;;;;;6270326;22;20189;-89
2021/07/23 15:50:17;;;;;;;13.50;7.93;;;;;;;;;;6271177;22;20189;-88
2021/07/23 15:53:23;;;;;;;13.65;7.05;;;;;;;;;;6271881;22;20170;-88
2021/07/23 15:56:31;;;;;;;11.70;6.95;;;;;;;;;;6271476;22;20236;-88
2021/07/23 15:59:37;;;;;;;11.00;7.07;;;;;;;;;;6271112;22;20169;-86
2021/07/23 16:02:42;;;;;;;14.43;5.97;;;;;;;;;;6271908;22;20197;-88
2021/07/23 16:05:47;;;;;;;15.40;6.97;;;;;;;;;;6271543;22;20173;-87
2021/07/23 16:08:52;;;;;;;14.43;7.47;;;;;;;;;;6271424;22;20174;-88
2021/07/23 16:11:59;;;;;;;17.73;7.40;;;;;;;;;;6269689;22;20173;-89
2021/07/23 16:15:04;;;;;;;14.75;7.07;;;;;;;;;;6271034;22;20636;-88
2021/07/23 16:18:09;;;;;;;15.00;7.55;;;;;;;;;;6273994;22;20174;-87
2021/07/23 16:21:18;;;;;;;13.57;6.95;;;;;;;;;;6273677;22;20173;-89
2021/07/23 16:24:23;;;;;;;12.68;6.88;;;;;;;;;;6292253;22;20284;-88
2021/07/23 16:27:30;;;;;;;13.95;6.75;;;;;;;;;;6276068;22;20165;-90
2021/07/23 16:30:36;;;;;;;11.75;6.55;;;;;;;;;;6271462;22;20174;-86
2021/07/23 16:33:41;;;;;;;14.15;7.38;;;;;;;;;;6272908;22;20161;-89
2021/07/23 16:36:46;;;;;;;15.82;7.18;;;;;;;;;;6272532;22;20174;-88
2021/07/23 16:39:51;;;;;;;13.95;7.22;;;;;;;;;;6270836;22;20234;-89
2021/07/23 16:42:58;;;;;;;14.10;7.32;;;;;;;;;;6271950;22;20312;-89
2021/07/23 16:46:04;;;;;;;11.85;6.80;;;;;;;;;;6273070;22;20673;-90
2021/07/23 16:49:09;;;;;;;12.10;6.68;;;;;;;;;;6270491;22;20165;-89
2021/07/23 16:52:14;;;;;;;20.35;7.50;;;;;;;;;;6273536;22;20162;-89
2021/07/23 16:55:19;;;;;;;14.80;7.85;;;;;;;;;;6272622;22;20170;-90
2021/07/23 16:58:26;;;;;;;10.82;6.88;;;;;;;;;;6273720;22;20174;-90
2021/07/23 17:01:32;;;;;;;12.75;6.95;;;;;;;;;;6273066;22;20173;-88
2021/07/23 17:04:37;;;;;;;11.32;6.78;;;;;;;;;;6272400;22;20173;-89
2021/07/23 17:07:42;;;;;;;16.83;8.25;;;;;;;;;;6274713;22;20551;-88
2021/07/23 17:10:52;;;;;;;10.98;6.55;;;;;;;;;;6273092;22;20153;-90
2021/07/23 17:13:58;;;;;;;11.52;7.15;;;;;;;;;;6274543;22;20166;-89
2021/07/23 17:17:05;;;;;;;11.02;6.65;;;;;;;;;;6270760;22;20243;-89
2021/07/23 17:20:11;;;;;;;14.43;6.95;;;;;;;;;;6269634;22;20170;-88
2021/07/23 17:23:16;;;;;;;11.48;6.40;;;;;;;;;;6271855;22;20194;-89
2021/07/23 17:26:21;;;;;;;14.70;7.50;;;;;;;;;;6271052;22;20204;-88
2021/07/23 17:29:28;;;;;;;13.63;7.70;;;;;;;;;;6272465;22;20233;-88
2021/07/23 17:32:34;;;;;;;12.75;7.25;;;;;;;;;;6272871;22;20166;-88
2021/07/23 17:35:39;;;;;;;17.63;8.07;;;;;;;;;;6271432;22;20165;-88
2021/07/23 17:38:45;;;;;;;14.02;7.50;;;;;;;;;;6272255;22;20169;-89
2021/07/23 17:41:53;;;;;;;15.57;7.72;;;;;;;;;;6271363;22;20657;-89
2021/07/23 17:45:20;;;;;;;13.70;7.18;;;;;;;;;;6270507;22;20192;-90
2021/07/23 17:48:26;;;;;;;12.90;7.78;;;;;;;;;;6270162;22;20170;-89
2021/07/23 17:51:32;;;;;;;15.45;7.88;;;;;;;;;;6289749;22;20268;-90
2021/07/23 17:54:37;;;;;;;16.02;8.45;;;;;;;;;;6290122;22;20169;-89
2021/07/23 17:57:44;;;;;;;19.30;10.07;;;;;;;;;;6270527;22;20166;-89
2021/07/23 18:00:51;;;;;;;16.85;9.13;;;;;;;;;;6271689;22;20248;-88
2021/07/23 18:03:56;;;;;;;13.57;7.85;;;;;;;;;;6290319;22;20200;-88
2021/07/23 18:07:07;;;;;;;31.52;11.70;;;;;;;;;;6271303;22;20631;-87
2021/07/23 18:10:12;;;;;;;17.17;9.13;;;;;;;;;;6271006;22;20173;-88
2021/07/23 18:13:17;;;;;;;15.40;8.23;;;;;;;;;;6269617;22;20169;-89
2021/07/23 18:16:24;;;;;;;13.98;7.65;;;;;;;;;;6269225;22;20170;-91
2021/07/23 18:19:29;;;;;;;12.65;7.88;;;;;;;;;;6268387;22;20495;-90
2021/07/23 18:22:34;;;;;;;23.85;8.32;;;;;;;;;;6267496;22;20197;-89
2021/07/23 18:25:39;;;;;;;19.63;8.93;;;;;;;;;;6267827;22;20232;-89
2021/07/23 18:28:47;;;;;;;17.42;8.45;;;;;;;;;;6268852;22;20178;-88